Woodrow, Colorado
Current Conditions -  °F | °C
As of 8:53 AM on Friday 24 Oct 2014 (Local Time) from KAKO Reporting Station
Clear Clear  
Wind Chill: 58°   Ceiling: Unl
Heat Index: 58°   Visibility: 10mi
Dew Point: 33°   Wind: 14mph
Humidity: 39%   Direction: 270°W
Pressure: 30.13"   Gusts: NA
Location:  39.99°N, 103.59°W
Report Text: KAKO 241453Z AUTO 27012KT 10SM CLR 14/01 A3013 RMK AO2 SLP171 T01440006 53013
Loading
Personal Weather Stations






























Interactive Weather Map
Tropical Storm Tracking
New forecast layout! Learn more

10-Day Weather Forecast

Advertisements
Track Severe Weather on mobile